VTBS/BKK METAR and TAF weather

Enter ICAO airport designator
Station Type Date Time Source
VTBS METAR 2018/12/10 12:30 UTC NOAA

VTBS 101230Z 36007KT 9000 FEW020 28/22 Q1011 NOSIG


Station Type Date Time Source
VTBS Decoded METAR 2018/12/10 12:30 UTC NOAA

Chon Buri, Thailand (VTBS) 13-22N 100-59E 2M
Dec 10, 2018 - 07:30 AM EST / 2018.12.10 1230 UTC
Wind: from the N (360 degrees) at 8 MPH (7 KT):0
Visibility: 5 mile(s):0
Sky conditions: mostly clear
Temperature: 82 F (28 C)
Dew Point: 71 F (22 C)
Relative Humidity: 69%
Pressure (altimeter): 29.85 in. Hg (1011 hPa)
ob: VTBS 101230Z 36007KT 9000 FEW020 28/22 Q1011 NOSIG
cycle: 12

Station Type Date Time Source
VTBS TAF 2018/12/10 12:00 UTC NOAA

TAF VTBS 101100Z 1012/1118 08005KT 9999 FEW020 SCT100
BECMG 1016/1018 01005KT FEW040
BECMG 1102/1104 07008KT FEW025
BECMG 1116/1118 35005KT FEW040


Example: see airport list